createdAt,value
2018-06-16T00:01:23.480Z,98445.79
2018-06-16T00:03:52.832Z,98454.63
2018-06-16T00:06:22.075Z,98455.06
2018-06-16T00:08:51.320Z,98458.81
2018-06-16T00:11:20.500Z,98459.36
2018-06-16T00:13:49.750Z,98459.05
2018-06-16T00:16:19.038Z,98456.46
2018-06-16T00:18:48.292Z,98462.42
2018-06-16T00:21:17.613Z,98454.44
2018-06-16T00:23:46.869Z,98454.62
2018-06-16T00:26:16.052Z,98453.59
2018-06-16T00:28:45.313Z,98454.08
2018-06-16T00:31:14.621Z,98450.50
2018-06-16T00:33:44.020Z,98448.66
2018-06-16T00:36:13.248Z,98439.84
2018-06-16T00:38:42.635Z,98446.87
2018-06-16T00:41:12.018Z,98440.02
2018-06-16T00:43:41.275Z,98450.34
2018-06-16T00:46:10.268Z,98449.20
2018-06-16T00:48:39.231Z,98443.31
2018-06-16T00:51:08.334Z,98450.17
2018-06-16T00:53:37.416Z,98446.21
2018-06-16T00:56:06.692Z,98455.69
2018-06-16T00:58:35.851Z,98442.55
2018-06-16T01:01:04.867Z,98440.36
2018-06-16T01:03:33.923Z,98436.00
2018-06-16T01:06:02.978Z,98448.11
2018-06-16T01:08:32.425Z,98443.10
2018-06-16T01:11:01.414Z,98435.18
2018-06-16T01:13:30.765Z,98443.69
2018-06-16T01:15:59.769Z,98446.22
2018-06-16T01:18:28.880Z,98450.92
2018-06-16T01:20:58.350Z,98447.66
2018-06-16T01:23:27.420Z,98443.05
2018-06-16T01:25:56.230Z,98440.92
2018-06-16T01:28:25.215Z,98441.22
2018-06-16T01:30:54.184Z,98446.06
2018-06-16T01:33:23.155Z,98451.83
2018-06-16T01:35:52.207Z,98446.59
2018-06-16T01:38:21.397Z,98452.31
2018-06-16T01:40:50.428Z,98463.11
2018-06-16T01:43:19.407Z,98458.69
2018-06-16T01:45:48.385Z,98455.30
2018-06-16T01:48:17.632Z,98463.17
2018-06-16T01:50:46.855Z,98460.91
2018-06-16T01:53:16.250Z,98460.55
2018-06-16T01:55:45.585Z,98462.04
2018-06-16T01:58:14.840Z,98462.89
2018-06-16T02:00:44.144Z,98452.41
2018-06-16T02:03:13.308Z,98443.71
2018-06-16T02:05:42.704Z,98442.09
2018-06-16T02:08:11.920Z,98449.66
2018-06-16T02:10:40.938Z,98446.33
2018-06-16T02:13:09.965Z,98446.21
2018-06-16T02:15:38.951Z,98446.05
2018-06-16T02:18:08.210Z,98445.28
2018-06-16T02:20:37.215Z,98441.69
2018-06-16T02:23:06.252Z,98438.91
2018-06-16T02:25:35.299Z,98439.80
2018-06-16T02:28:04.473Z,98442.26
2018-06-16T02:30:33.524Z,98448.34
2018-06-16T02:33:02.589Z,98442.46
2018-06-16T02:35:32.154Z,98436.55
2018-06-16T02:38:01.200Z,98440.00
2018-06-16T02:40:30.265Z,98434.27
2018-06-16T02:42:59.310Z,98438.99
2018-06-16T02:45:28.452Z,98436.48
2018-06-16T02:47:57.523Z,98430.87
2018-06-16T02:50:26.602Z,98434.31
2018-06-16T02:52:55.515Z,98433.77
2018-06-16T02:55:24.501Z,98443.59
2018-06-16T02:57:53.533Z,98441.09
2018-06-16T03:00:22.589Z,98440.61
2018-06-16T03:02:51.622Z,98442.38
2018-06-16T03:05:20.686Z,98446.25
2018-06-16T03:07:49.717Z,98443.08
2018-06-16T03:10:18.818Z,98440.16
2018-06-16T03:12:47.846Z,98439.30
2018-06-16T03:15:16.876Z,98438.78
2018-06-16T03:17:46.180Z,98442.32
2018-06-16T03:20:15.373Z,98447.56
2018-06-16T03:22:44.360Z,98438.02
2018-06-16T03:25:13.377Z,98438.11
2018-06-16T03:27:42.399Z,98442.31
2018-06-16T03:30:11.355Z,98451.06
2018-06-16T03:32:40.381Z,98442.70
2018-06-16T03:35:09.417Z,98438.03
2018-06-16T03:37:38.385Z,98438.61
2018-06-16T03:40:07.541Z,98440.67
2018-06-16T03:42:36.535Z,98435.00
2018-06-16T03:45:05.732Z,98435.49
2018-06-16T03:47:34.708Z,98434.27
2018-06-16T03:50:03.817Z,98434.27
2018-06-16T03:52:32.780Z,98435.81
2018-06-16T03:55:01.745Z,98429.95
2018-06-16T03:57:30.728Z,98435.88
2018-06-16T03:59:59.747Z,98433.22
2018-06-16T04:02:28.784Z,98435.91
2018-06-16T04:04:57.948Z,98442.84
2018-06-16T04:07:27.084Z,98440.28
2018-06-16T04:09:56.092Z,98436.59
2018-06-16T04:12:25.056Z,98423.93
2018-06-16T04:14:54.033Z,98429.19
2018-06-16T04:17:22.997Z,98430.94
2018-06-16T04:19:52.997Z,98439.18
2018-06-16T04:22:22.524Z,98443.67
2018-06-16T04:24:51.764Z,98437.82
2018-06-16T04:27:20.720Z,98430.61
2018-06-16T04:29:49.707Z,98442.50
2018-06-16T04:32:18.821Z,98437.59
2018-06-16T04:34:47.866Z,98437.20
2018-06-16T04:37:16.787Z,98433.98
2018-06-16T04:39:45.777Z,98440.22
2018-06-16T04:42:14.755Z,98446.21
2018-06-16T04:44:43.796Z,98443.69
2018-06-16T04:47:12.815Z,98435.34
2018-06-16T04:49:41.837Z,98437.81
2018-06-16T04:52:10.805Z,98435.28
2018-06-16T04:54:39.783Z,98439.86
2018-06-16T04:57:08.773Z,98442.19
2018-06-16T04:59:37.794Z,98445.06
2018-06-16T05:02:06.844Z,98444.20
2018-06-16T05:04:35.804Z,98444.81
2018-06-16T05:07:04.864Z,98449.20
2018-06-16T05:09:34.102Z,98454.73
2018-06-16T05:12:03.155Z,98450.99
2018-06-16T05:14:32.121Z,98441.39
2018-06-16T05:17:01.179Z,98439.05
2018-06-16T05:19:30.257Z,98432.17
2018-06-16T05:21:59.359Z,98438.85
2018-06-16T05:24:28.372Z,98438.14
2018-06-16T05:26:57.412Z,98438.05
2018-06-16T05:29:26.583Z,98433.70
2018-06-16T05:31:55.755Z,98436.91
2018-06-16T05:34:24.802Z,98438.06
2018-06-16T05:36:54.050Z,98438.36
2018-06-16T05:39:23.087Z,98442.34
2018-06-16T05:41:52.105Z,98441.62
2018-06-16T05:44:21.144Z,98448.63
2018-06-16T05:46:50.115Z,98446.90
2018-06-16T05:49:19.148Z,98449.53
2018-06-16T05:51:48.127Z,98446.78
2018-06-16T05:54:17.148Z,98440.66
2018-06-16T05:56:46.131Z,98441.95
2018-06-16T05:59:15.093Z,98434.12
2018-06-16T06:01:44.074Z,98433.47
2018-06-16T06:04:13.031Z,98437.48
2018-06-16T06:06:42.005Z,98435.53
2018-06-16T06:09:11.718Z,98439.27
2018-06-16T06:11:41.158Z,98437.63
2018-06-16T06:16:39.917Z,98439.11
2018-06-16T06:19:09.322Z,98433.47
2018-06-16T06:21:38.507Z,98437.53
2018-06-16T06:24:07.688Z,98431.74
2018-06-16T06:26:36.924Z,98427.78
2018-06-16T06:29:05.961Z,98431.74
2018-06-16T06:31:34.935Z,98433.48
2018-06-16T06:34:04.069Z,98428.31
2018-06-16T06:36:33.051Z,98425.59
2018-06-16T06:39:02.022Z,98433.53
2018-06-16T06:41:31.056Z,98436.16
2018-06-16T06:44:00.892Z,98431.69
2018-06-16T06:46:29.876Z,98431.91
2018-06-16T06:48:58.843Z,98434.80
2018-06-16T06:51:28.855Z,98425.28
2018-06-16T06:53:58.181Z,98427.70
2018-06-16T06:56:27.465Z,98430.03
2018-06-16T06:58:56.644Z,98443.76
2018-06-16T07:01:25.618Z,98441.55
2018-06-16T07:03:54.665Z,98438.80
2018-06-16T07:06:23.627Z,98445.27
2018-06-16T07:08:52.832Z,98453.16
2018-06-16T07:11:21.997Z,98456.73
2018-06-16T07:13:50.956Z,98457.70
2018-06-16T07:16:20.196Z,98450.94
2018-06-16T07:18:49.339Z,98453.20
2018-06-16T07:21:18.620Z,98451.59
2018-06-16T07:23:47.919Z,98454.48
2018-06-16T07:26:17.252Z,98454.10
2018-06-16T07:28:46.569Z,98465.22
2018-06-16T07:31:15.903Z,98461.56
2018-06-16T07:33:45.229Z,98468.97
2018-06-16T07:36:14.554Z,98467.95
2018-06-16T07:38:43.872Z,98469.59
2018-06-16T07:41:13.093Z,98459.37
2018-06-16T07:43:42.363Z,98461.37
2018-06-16T07:46:11.577Z,98455.20
2018-06-16T07:48:40.912Z,98451.99
2018-06-16T07:51:10.129Z,98457.46
2018-06-16T07:53:39.517Z,98461.88
2018-06-16T07:56:08.832Z,98469.57
2018-06-16T07:58:38.337Z,98465.18
2018-06-16T08:01:07.576Z,98465.00
2018-06-16T08:03:36.877Z,98469.55
2018-06-16T08:06:06.110Z,98470.47
2018-06-16T08:08:35.355Z,98471.33
2018-06-16T08:11:04.587Z,98479.23
2018-06-16T08:13:33.800Z,98474.88
2018-06-16T08:16:02.961Z,98469.41
2018-06-16T08:18:32.076Z,98473.83
2018-06-16T08:21:01.312Z,98459.27
2018-06-16T08:23:30.512Z,98458.39
2018-06-16T08:25:59.825Z,98453.11
2018-06-16T08:28:29.198Z,98453.83
2018-06-16T08:30:58.641Z,98452.77
2018-06-16T08:33:27.760Z,98459.11
2018-06-16T08:35:57.403Z,98453.63
2018-06-16T08:38:26.596Z,98449.56
2018-06-16T08:40:55.771Z,98450.52
2018-06-16T08:43:25.059Z,98450.52
2018-06-16T08:45:54.288Z,98451.77
2018-06-16T08:48:23.493Z,98456.69
2018-06-16T08:50:52.710Z,98454.37
2018-06-16T08:53:21.855Z,98448.84
2018-06-16T08:55:51.129Z,98452.63
2018-06-16T08:58:20.384Z,98457.70
2018-06-16T09:00:49.678Z,98466.49
2018-06-16T09:03:18.983Z,98455.59
2018-06-16T09:05:48.277Z,98454.25
2018-06-16T09:08:17.561Z,98445.71
2018-06-16T09:10:46.782Z,98444.28
2018-06-16T09:13:16.029Z,98442.71
2018-06-16T09:15:45.268Z,98438.67
2018-06-16T09:18:14.584Z,98445.09
2018-06-16T09:20:43.965Z,98448.30
2018-06-16T09:23:13.493Z,98447.04
2018-06-16T09:25:42.748Z,98448.21
2018-06-16T09:28:11.989Z,98449.25
2018-06-16T09:30:41.251Z,98438.69
2018-06-16T09:33:10.537Z,98440.95
2018-06-16T09:35:39.796Z,98443.94
2018-06-16T09:38:09.013Z,98444.16
2018-06-16T09:40:38.368Z,98445.61
2018-06-16T09:43:07.802Z,98452.45
2018-06-16T09:45:37.038Z,98455.01
2018-06-16T09:48:06.336Z,98449.25
2018-06-16T09:50:35.583Z,98453.83
2018-06-16T09:53:04.876Z,98447.17
2018-06-16T09:55:34.139Z,98436.58
2018-06-16T09:58:03.354Z,98435.97
2018-06-16T10:00:37.593Z,98430.57
2018-06-16T10:03:06.766Z,98429.35
2018-06-16T10:05:35.984Z,98430.69
2018-06-16T10:08:05.172Z,98441.04
2018-06-16T10:10:34.456Z,98439.71
2018-06-16T10:13:03.640Z,98432.67
2018-06-16T10:15:32.946Z,98436.34
2018-06-16T10:18:02.193Z,98438.63
2018-06-16T10:20:31.712Z,98442.80
2018-06-16T10:23:01.113Z,98442.11
2018-06-16T10:25:30.261Z,98443.93
2018-06-16T10:27:59.636Z,98442.88
2018-06-16T10:30:28.976Z,98439.68
2018-06-16T10:32:58.336Z,98440.94
2018-06-16T10:35:27.668Z,98438.84
2018-06-16T10:37:57.151Z,98434.66
2018-06-16T10:40:26.641Z,98432.16
2018-06-16T10:42:56.004Z,98429.07
2018-06-16T10:45:25.402Z,98418.31
2018-06-16T10:47:54.821Z,98400.22
2018-06-16T10:50:24.092Z,98393.44
2018-06-16T10:52:53.438Z,98400.97
2018-06-16T10:55:22.645Z,98392.02
2018-06-16T10:57:51.843Z,98398.07
2018-06-16T11:00:21.172Z,98404.55
2018-06-16T11:02:50.316Z,98411.31
2018-06-16T11:05:19.668Z,98414.50
2018-06-16T11:07:49.071Z,98406.74
2018-06-16T11:10:18.524Z,98400.14
2018-06-16T11:12:47.900Z,98386.85
2018-06-16T11:15:17.268Z,98388.58
2018-06-16T11:17:46.716Z,98375.45
2018-06-16T11:20:16.112Z,98371.80
2018-06-16T11:22:45.649Z,98372.27
2018-06-16T11:25:15.015Z,98385.17
2018-06-16T11:27:44.241Z,98398.86
2018-06-16T11:30:13.319Z,98408.33
2018-06-16T11:32:42.354Z,98401.55
2018-06-16T11:35:11.676Z,98392.95
2018-06-16T11:37:40.936Z,98390.63
2018-06-16T11:40:10.270Z,98400.22
2018-06-16T11:42:39.481Z,98406.37
2018-06-16T11:45:08.786Z,98399.50
2018-06-16T11:47:38.124Z,98392.45
2018-06-16T11:50:07.876Z,98392.91
2018-06-16T11:52:37.079Z,98403.42
2018-06-16T11:55:06.540Z,98421.22
2018-06-16T11:57:35.781Z,98440.59
2018-06-16T12:00:04.972Z,98446.84
2018-06-16T12:02:34.240Z,98441.30
2018-06-16T12:05:03.338Z,98426.17
2018-06-16T12:07:32.608Z,98438.01
2018-06-16T12:10:01.875Z,98436.09
2018-06-16T12:12:31.155Z,98447.45
2018-06-16T12:15:00.513Z,98447.05
2018-06-16T12:17:29.868Z,98444.52
2018-06-16T12:19:59.243Z,98438.52
2018-06-16T12:22:28.451Z,98448.66
2018-06-16T12:24:57.915Z,98439.56
2018-06-16T12:27:27.203Z,98432.77
2018-06-16T12:29:56.436Z,98430.17
2018-06-16T12:32:25.745Z,98426.04
2018-06-16T12:34:55.141Z,98427.03
2018-06-16T12:37:24.430Z,98437.20
2018-06-16T12:39:53.937Z,98441.20
2018-06-16T12:42:23.512Z,98441.78
2018-06-16T12:44:52.776Z,98447.22
2018-06-16T12:47:22.081Z,98450.61
2018-06-16T12:49:51.385Z,98439.66
2018-06-16T12:52:20.652Z,98441.61
2018-06-16T12:54:49.896Z,98452.77
2018-06-16T12:57:19.115Z,98470.65
2018-06-16T12:59:48.429Z,98481.22
2018-06-16T13:02:17.564Z,98492.02
2018-06-16T13:04:46.781Z,98498.89
2018-06-16T13:07:16.059Z,98494.38
2018-06-16T13:09:45.224Z,98487.38
2018-06-16T13:12:14.460Z,98463.70
2018-06-16T13:14:43.895Z,98447.66
2018-06-16T13:17:13.152Z,98438.72
2018-06-16T13:19:42.495Z,98443.05
2018-06-16T13:22:11.668Z,98464.26
2018-06-16T13:24:41.093Z,98476.19
2018-06-16T13:27:10.559Z,98501.22
2018-06-16T13:29:39.800Z,98512.97
2018-06-16T13:32:09.031Z,98532.83
2018-06-16T13:34:38.463Z,98526.27
2018-06-16T13:37:07.777Z,98510.78
2018-06-16T13:39:36.960Z,98505.19
2018-06-16T13:42:06.228Z,98498.78
2018-06-16T13:44:35.468Z,98474.99
2018-06-16T13:47:04.668Z,98455.84
2018-06-16T13:49:33.912Z,98444.66
2018-06-16T13:52:03.120Z,98436.36
2018-06-16T13:54:32.482Z,98419.23
2018-06-16T13:57:01.696Z,98393.52
2018-06-16T13:59:30.892Z,98394.63
2018-06-16T14:02:00.051Z,98395.33
2018-06-16T14:04:29.403Z,98390.18
2018-06-16T14:06:58.768Z,98385.22
2018-06-16T14:09:28.084Z,98394.31
2018-06-16T14:11:57.649Z,98398.67
2018-06-16T14:14:26.715Z,98396.64
2018-06-16T14:16:56.023Z,98403.43
2018-06-16T14:19:25.295Z,98405.80
2018-06-16T14:21:54.508Z,98408.21
2018-06-16T14:24:23.843Z,98424.66
2018-06-16T14:26:53.152Z,98420.79
2018-06-16T14:29:22.537Z,98421.81
2018-06-16T14:31:51.796Z,98435.28
2018-06-16T14:34:21.145Z,98442.38
2018-06-16T14:36:50.451Z,98454.45
2018-06-16T14:39:19.779Z,98453.14
2018-06-16T14:41:49.088Z,98449.48
2018-06-16T14:44:18.441Z,98451.91
2018-06-16T14:46:47.670Z,98453.73
2018-06-16T14:49:17.145Z,98464.48
2018-06-16T14:51:46.496Z,98459.30
2018-06-16T14:54:15.947Z,98466.41
2018-06-16T14:56:45.618Z,98456.29
2018-06-16T14:59:14.836Z,98448.67
2018-06-16T15:01:44.322Z,98438.46
2018-06-16T15:04:13.706Z,98432.77
2018-06-16T15:06:43.109Z,98427.70
2018-06-16T15:09:12.780Z,98424.66
2018-06-16T15:11:42.188Z,98424.88
2018-06-16T15:14:11.501Z,98428.96
2018-06-16T15:16:40.928Z,98423.90
2018-06-16T15:19:10.475Z,98426.20
2018-06-16T15:21:39.953Z,98417.30
2018-06-16T15:24:09.424Z,98412.48
2018-06-16T15:26:38.674Z,98410.67
2018-06-16T15:29:08.208Z,98406.09
2018-06-16T15:31:37.436Z,98412.28
2018-06-16T15:34:06.832Z,98417.30
2018-06-16T15:36:35.963Z,98406.94
2018-06-16T15:39:07.419Z,98397.20
2018-06-16T15:41:36.682Z,98390.27
2018-06-16T15:44:05.935Z,98383.33
2018-06-16T15:46:35.283Z,98389.08
2018-06-16T15:49:04.629Z,98392.59
2018-06-16T15:51:33.835Z,98386.72
2018-06-16T15:54:02.823Z,98390.66
2018-06-16T15:56:32.213Z,98387.20
2018-06-16T15:59:01.414Z,98393.47
2018-06-16T16:01:30.799Z,98391.33
2018-06-16T16:04:00.081Z,98387.34
2018-06-16T16:06:29.448Z,98387.45
2018-06-16T16:08:58.586Z,98395.63
2018-06-16T16:11:27.687Z,98393.06
2018-06-16T16:13:56.903Z,98392.78
2018-06-16T16:16:26.147Z,98403.02
2018-06-16T16:18:55.247Z,98411.72
2018-06-16T16:21:24.421Z,98412.92
2018-06-16T16:23:53.895Z,98424.63
2018-06-16T16:26:23.213Z,98422.16
2018-06-16T16:28:52.540Z,98426.34
2018-06-16T16:31:21.777Z,98433.69
2018-06-16T16:33:50.928Z,98436.82
2018-06-16T16:36:20.292Z,98435.31
2018-06-16T16:38:49.641Z,98432.38
2018-06-16T16:41:18.945Z,98439.20
2018-06-16T16:43:48.177Z,98436.66
2018-06-16T16:46:17.500Z,98429.97
2018-06-16T16:48:46.833Z,98438.63
2018-06-16T16:51:16.279Z,98452.83
2018-06-16T16:53:45.644Z,98459.53
2018-06-16T16:56:14.843Z,98462.88
2018-06-16T16:58:43.951Z,98455.88
2018-06-16T17:01:13.285Z,98453.36
2018-06-16T17:03:42.419Z,98456.09
2018-06-16T17:06:11.530Z,98463.02
2018-06-16T17:08:40.760Z,98468.87
2018-06-16T17:11:10.028Z,98466.77
2018-06-16T17:13:39.322Z,98471.34
2018-06-16T17:16:08.480Z,98463.72
2018-06-16T17:18:37.802Z,98458.44
2018-06-16T17:21:07.108Z,98460.78
2018-06-16T17:23:36.505Z,98466.36
2018-06-16T17:26:05.623Z,98468.30
2018-06-16T17:28:34.820Z,98458.97
2018-06-16T17:31:04.177Z,98464.13
2018-06-16T17:33:33.293Z,98463.34
2018-06-16T17:36:02.569Z,98468.81
2018-06-16T17:38:31.828Z,98472.97
2018-06-16T17:41:01.152Z,98485.44
2018-06-16T17:43:30.508Z,98496.77
2018-06-16T17:45:59.943Z,98502.53
2018-06-16T17:48:29.368Z,98500.10
2018-06-16T17:50:58.727Z,98496.15
2018-06-16T17:53:27.924Z,98494.92
2018-06-16T17:55:57.296Z,98500.59
2018-06-16T17:58:26.615Z,98501.83
2018-06-16T18:00:55.834Z,98504.16
2018-06-16T18:03:25.216Z,98501.17
2018-06-16T18:05:54.692Z,98493.27
2018-06-16T18:08:23.720Z,98492.15
2018-06-16T18:11:00.609Z,98485.56
2018-06-16T18:13:30.129Z,98481.91
2018-06-16T18:15:59.582Z,98493.28
2018-06-16T18:18:29.157Z,98495.39
2018-06-16T18:20:58.659Z,98488.98
2018-06-16T18:23:28.057Z,98492.80
2018-06-16T18:25:57.665Z,98496.94
2018-06-16T18:28:27.278Z,98505.24
2018-06-16T18:30:56.922Z,98500.57
2018-06-16T18:33:26.370Z,98501.86
2018-06-16T18:35:56.683Z,98504.59
2018-06-16T18:38:26.276Z,98515.42
2018-06-16T18:40:55.764Z,98525.86
2018-06-16T18:43:25.311Z,98513.28
2018-06-16T18:45:54.877Z,98517.48
2018-06-16T18:48:24.309Z,98519.62
2018-06-16T18:50:54.772Z,98521.50
2018-06-16T18:53:24.009Z,98525.52
2018-06-16T18:55:54.446Z,98529.27
2018-06-16T18:58:24.016Z,98520.88
2018-06-16T19:00:54.358Z,98523.91
2018-06-16T19:03:23.616Z,98528.48
2018-06-16T19:05:53.149Z,98528.52
2018-06-16T19:08:22.773Z,98536.74
2018-06-16T19:10:52.367Z,98534.34
2018-06-16T19:13:21.498Z,98541.80
2018-06-16T19:15:50.722Z,98542.52
2018-06-16T19:18:19.939Z,98545.55
2018-06-16T19:20:49.155Z,98542.38
2018-06-16T19:23:18.416Z,98543.27
2018-06-16T19:25:51.672Z,98532.02
2018-06-16T19:28:20.850Z,98530.20
2018-06-16T19:30:50.801Z,98535.04
2018-06-16T19:33:20.350Z,98540.00
2018-06-16T19:35:49.687Z,98545.76
2018-06-16T19:38:18.986Z,98542.44
2018-06-16T19:40:48.442Z,98553.66
2018-06-16T19:43:17.776Z,98550.23
2018-06-16T19:45:47.080Z,98553.45
2018-06-16T19:48:16.518Z,98549.86
2018-06-16T19:50:45.815Z,98559.06
2018-06-16T19:53:14.952Z,98561.34
2018-06-16T19:55:43.976Z,98562.77
2018-06-16T19:58:13.136Z,98565.28
2018-06-16T20:00:42.369Z,98573.29
2018-06-16T20:03:11.647Z,98571.69
2018-06-16T20:05:40.856Z,98573.77
2018-06-16T20:08:09.932Z,98572.12
2018-06-16T20:10:38.903Z,98569.19
2018-06-16T20:13:07.864Z,98564.03
2018-06-16T20:15:36.869Z,98565.35
2018-06-16T20:18:05.918Z,98566.80
2018-06-16T20:20:35.339Z,98578.21
2018-06-16T20:23:04.460Z,98580.16
2018-06-16T20:25:33.567Z,98584.45
2018-06-16T20:28:02.799Z,98592.00
2018-06-16T20:30:31.767Z,98593.19
2018-06-16T20:33:00.867Z,98597.08
2018-06-16T20:35:29.871Z,98591.33
2018-06-16T20:37:58.882Z,98592.94
2018-06-16T20:40:27.922Z,98587.57
2018-06-16T20:42:56.894Z,98583.67
2018-06-16T20:45:25.893Z,98583.34
2018-06-16T20:47:54.879Z,98581.42
2018-06-16T20:50:23.902Z,98578.25
2018-06-16T20:52:52.939Z,98578.85
2018-06-16T20:55:21.931Z,98571.15
2018-06-16T20:57:50.932Z,98577.86
2018-06-16T21:00:19.953Z,98577.97
2018-06-16T21:02:48.928Z,98579.29
2018-06-16T21:05:17.920Z,98583.92
2018-06-16T21:07:46.887Z,98586.34
2018-06-16T21:10:15.890Z,98594.83
2018-06-16T21:12:44.847Z,98590.64
2018-06-16T21:15:13.969Z,98591.95
2018-06-16T21:17:43.291Z,98592.64
2018-06-16T21:20:12.297Z,98597.71
2018-06-16T21:22:41.302Z,98590.25
2018-06-16T21:25:10.286Z,98587.19
2018-06-16T21:27:39.360Z,98582.55
2018-06-16T21:30:08.330Z,98580.91
2018-06-16T21:32:37.332Z,98397.59
2018-06-16T21:35:06.412Z,98569.69
2018-06-16T21:37:35.628Z,98573.53
2018-06-16T21:40:04.868Z,98569.06
2018-06-16T21:42:34.483Z,98566.76
2018-06-16T21:45:03.904Z,98554.09
2018-06-16T21:47:33.219Z,98548.14
2018-06-16T21:50:02.558Z,98544.30
2018-06-16T21:52:31.784Z,98554.44
2018-06-16T21:55:00.982Z,98556.03
2018-06-16T21:57:30.134Z,98560.17
2018-06-16T21:59:59.553Z,98569.78
2018-06-16T22:02:28.852Z,98569.84
2018-06-16T22:04:58.190Z,98576.94
2018-06-16T22:07:27.188Z,98585.38
2018-06-16T22:09:56.225Z,98588.09
2018-06-16T22:12:25.231Z,98585.77
2018-06-16T22:14:54.340Z,98591.22
2018-06-16T22:17:23.332Z,98588.18
2018-06-16T22:19:52.296Z,98595.99
2018-06-16T22:22:21.287Z,98593.86
2018-06-16T22:24:50.271Z,98600.23
2018-06-16T22:27:19.275Z,98608.84
2018-06-16T22:29:48.240Z,98608.13
2018-06-16T22:32:17.335Z,98613.02
2018-06-16T22:34:46.572Z,98615.53
2018-06-16T22:37:15.546Z,98616.50
2018-06-16T22:39:44.532Z,98613.53
2018-06-16T22:42:13.559Z,98621.31
2018-06-16T22:44:42.572Z,98615.94
2018-06-16T22:47:11.527Z,98618.44
2018-06-16T22:49:40.521Z,98607.42
2018-06-16T22:52:09.463Z,98612.98
2018-06-16T22:54:38.479Z,98602.98
2018-06-16T22:57:07.426Z,98602.45
2018-06-16T22:59:36.461Z,98603.72
2018-06-16T23:02:05.491Z,98590.67
2018-06-16T23:04:34.475Z,98588.73
2018-06-16T23:07:03.566Z,98584.39
2018-06-16T23:09:32.589Z,98583.63
2018-06-16T23:12:01.567Z,98582.74
2018-06-16T23:14:30.573Z,98586.50
2018-06-16T23:16:59.575Z,98589.77
2018-06-16T23:19:28.643Z,98596.06
2018-06-16T23:21:57.728Z,98589.33
2018-06-16T23:24:26.734Z,98586.64
2018-06-16T23:26:55.749Z,98591.66
2018-06-16T23:29:24.713Z,98587.41
2018-06-16T23:31:53.692Z,98590.64
2018-06-16T23:34:22.709Z,98597.22
2018-06-16T23:36:51.706Z,98586.39
2018-06-16T23:39:20.675Z,98590.09
2018-06-16T23:41:49.658Z,98587.77
2018-06-16T23:44:18.623Z,98576.75
2018-06-16T23:46:47.554Z,98575.42
2018-06-16T23:49:16.675Z,98569.64
2018-06-16T23:51:45.671Z,98570.55
2018-06-16T23:54:14.628Z,98576.41
2018-06-16T23:56:43.643Z,98575.34
2018-06-16T23:59:12.607Z,98581.34
